Latest Weather Observations for Robe Airport

IDS60801

Issued at 11:01 pm CST Tuesday 4 August 2015 (issued every 30 minutes, with the page automatically refreshed every 10 minutes)

About weather observations | Map of weather stations | Latest weather observations for SA | Other Formats
Station Details ID: 026105 Name: ROBE AIRFIELD Lat: -37.18 Lon: 139.81 Height: 3.0 m
Data from the previous 72 hours. | See also: Recent months at Robe Airport
Date/Time
CST
Temp
°C
App
Temp
°C
Dew
Point
Rel
Hum
%
Delta-T
°C
Wind Press
QNH
hPa
Press
MSL
hPa
Rain
since 9 am
mm
Dir
 
Spd
km/h
Gust
km/h
Spd
kts
Gust
kts
04/11:00pm 11.2 6.0 5.5 68 2.6 WSW 22 37 12 20 1017.9 1017.9 1.4
04/10:30pm 10.8 6.7 8.0 83 1.4 WSW 19 32 10 17 1018.1 1018.1 1.4
04/10:06pm 10.3 4.6 8.2 87 1.0 WSW 28 54 15 29 1018.5 1018.5 1.4
04/10:00pm 11.3 6.5 7.4 77 1.9 WSW 22 43 12 23 1018.3 1018.3 1.0
04/09:30pm 11.1 6.9 8.3 83 1.4 WSW 20 32 11 17 1018.5 1018.5 0.8
04/09:00pm 11.3 6.5 7.4 77 1.9 WSW 22 44 12 24 1018.7 1018.7 0.8
04/08:30pm 11.8 6.5 6.9 72 2.3 WSW 24 39 13 21 1018.7 1018.7 0.8
04/08:00pm 11.6 6.1 7.7 77 1.9 W 26 39 14 21 1018.9 1018.9 0.8
04/07:30pm 11.4 6.7 9.1 86 1.1 W 24 41 13 22 1019.1 1019.1 0.8
04/07:00pm 11.4 6.5 8.4 82 1.5 WNW 24 35 13 19 1019.0 1019.0 0.8
04/06:46pm 11.3 5.6 8.5 83 1.4 WNW 28 50 15 27 1019.2 1019.2 0.8
04/06:30pm 11.1 6.5 8.0 81 1.5 WNW 22 39 12 21 1019.2 1019.2 0.8
04/06:00pm 11.2 6.6 8.2 82 1.5 W 22 39 12 21 1019.6 1019.6 0.8
04/05:30pm 11.8 6.6 7.1 73 2.2 WNW 24 35 13 19 1019.6 1019.6 0.6
04/05:00pm 11.7 7.4 7.2 74 2.2 W 19 39 10 21 1019.8 1019.8 0.6
04/04:30pm 11.8 6.8 6.3 69 2.6 W 22 39 12 21 1020.2 1020.2 0.6
04/04:00pm 12.0 6.7 5.2 63 3.1 W 22 33 12 18 1020.5 1020.5 0.6
04/03:30pm 12.2 7.4 5.8 65 3.0 W 20 35 11 19 1020.8 1020.8 0.6
04/03:00pm 12.0 6.7 6.7 70 2.5 W 24 37 13 20 1021.1 1021.1 0.6
04/02:30pm 11.4 7.0 8.8 84 1.3 W 22 35 12 19 1021.3 1021.3 0.6
04/02:00pm 13.0 9.6 9.3 78 1.9 WNW 17 33 9 18 1021.4 1021.4 0.6
04/01:30pm 12.3 6.9 7.8 74 2.2 W 26 41 14 22 1022.0 1022.0 0.4
04/01:00pm 12.7 8.2 6.3 65 3.0 W 19 28 10 15 1022.4 1022.4 0.4
04/12:30pm 13.1 8.5 6.7 65 3.1 W 20 30 11 16 1022.8 1022.8 0.4
04/12:00pm 12.3 7.7 6.6 68 2.7 W 20 32 11 17 1023.5 1023.5 0.4
04/11:30am 12.2 7.6 6.7 69 2.6 W 20 32 11 17 1023.9 1023.9 0.4
04/11:00am 11.3 8.6 7.2 76 2.0 WSW 11 20 6 11 1024.3 1024.3 0.4
04/10:30am 10.8 6.7 7.9 82 1.4 W 19 28 10 15 1024.6 1024.6 0.4
04/10:00am 9.7 6.8 8.1 90 0.8 WSW 13 24 7 13 1024.8 1024.8 0.4
04/09:30am 9.8 5.9 7.2 84 1.2 WSW 17 32 9 17 1024.9 1024.9 0.2
04/09:00am 10.6 8.6 7.1 79 1.7 W 7 13 4 7 1024.7 1024.7 2.4
04/08:30am 9.4 7.5 7.5 88 0.9 WSW 7 13 4 7 1024.8 1024.8 2.4
04/08:00am 8.3 6.5 7.2 93 0.5 WNW 6 7 3 4 1024.8 1024.8 2.4
04/07:30am 8.1 6.1 6.9 92 0.6 WSW 7 13 4 7 1024.7 1024.7 2.4
04/07:00am 6.9 4.7 5.5 91 0.6 WNW 6 9 3 5 1024.7 1024.7 1.6
04/06:30am 8.2 4.5 6.5 89 0.8 W 15 24 8 13 1024.7 1024.7 1.6
04/06:00am 8.0 5.8 6.1 88 0.9 W 7 15 4 8 1024.9 1024.9 1.6
04/05:30am 8.5 4.8 6.5 87 0.9 WSW 15 28 8 15 1024.9 1024.9 1.4
04/05:00am 8.4 5.6 5.0 79 1.5 SSW 9 17 5 9 1024.8 1024.8 1.0
04/04:30am 8.7 6.2 4.7 76 1.8 W 7 13 4 7 1024.7 1024.7 1.0
04/04:00am 7.7 4.8 4.5 80 1.4 WSW 9 13 5 7 1024.9 1024.9 0.8
04/03:30am 7.8 4.3 5.4 85 1.1 W 13 22 7 12 1024.9 1024.9 0.8
04/03:00am 7.7 5.1 4.3 79 1.5 W 7 9 4 5 1025.0 1025.0 0.8
04/02:30am 8.2 4.8 4.2 76 1.7 WSW 11 19 6 10 1025.2 1025.2 0.8
04/02:00am 8.1 5.3 3.2 71 2.1 WSW 7 13 4 7 1025.2 1025.2 0.8
04/01:30am 7.4 4.8 3.1 74 1.8 SW 6 9 3 5 1025.3 1025.3 0.8
04/01:00am 7.2 4.4 3.3 76 1.6 SW 7 11 4 6 1025.4 1025.4 0.8
04/12:30am 5.2 3.1 4.0 92 0.5 SSW 4 6 2 3 1025.5 1025.5 0.8
04/12:00am 5.6 4.2 3.8 88 0.8 CALM 0 2 0 1 1025.7 1025.7 0.8
 
Date/Time
CST
Temp
°C
App
Temp
°C
Dew
Point
Rel
Hum
%
Delta-T
°C
Wind Press
QNH
hPa
Press
MSL
hPa
Rain
since 9 am
mm
Dir
 
Spd
km/h
Gust
km/h
Spd
kts
Gust
kts
03/11:30pm 6.7 3.8 4.5 86 0.9 SSW 9 13 5 7 1025.9 1025.9 0.6
03/11:00pm 7.0 4.5 3.6 79 1.4 SW 6 7 3 4 1025.8 1025.8 0.6
03/10:30pm 6.1 4.0 4.1 87 0.8 WSW 4 7 2 4 1025.8 1025.8 0.6
03/10:00pm 7.1 4.7 5.4 89 0.8 W 7 13 4 7 1025.9 1025.9 0.6
03/09:30pm 5.2 3.8 3.7 90 0.6 CALM 0 0 0 0 1026.1 1026.1 0.6
03/09:00pm 6.2 4.3 4.8 91 0.6 NE 4 6 2 3 1026.2 1026.2 0.6
03/08:30pm 6.2 4.3 4.7 90 0.6 ESE 4 6 2 3 1026.2 1026.2 0.4
03/08:00pm 5.7 4.4 4.3 91 0.6 CALM 0 0 0 0 1026.2 1026.2 0.4
03/07:30pm 5.1 3.7 3.3 88 0.7 CALM 0 0 0 0 1026.2 1026.2 0.4
03/07:00pm 6.5 5.2 4.2 85 1.0 CALM 0 2 0 1 1026.0 1026.0 0.4
03/06:30pm 7.5 4.6 4.6 82 1.3 SSW 9 15 5 8 1025.8 1025.8 0.4
03/06:00pm 6.4 4.7 3.9 84 1.1 SSE 2 6 1 3 1025.6 1025.6 0.4
03/05:30pm 7.2 5.5 4.2 81 1.3 SSE 2 4 1 2 1025.1 1025.1 0.4
03/05:00pm 8.4 5.9 4.6 77 1.7 SSE 7 15 4 8 1024.9 1024.9 0.4
03/04:30pm 8.8 5.6 5.0 77 1.7 SSE 11 17 6 9 1024.8 1024.8 0.4
03/04:00pm 9.8 5.3 4.4 69 2.4 S 17 20 9 11 1024.4 1024.4 0.4
03/03:30pm 10.4 5.6 4.5 67 2.6 S 19 24 10 13 1024.2 1024.2 0.4
03/03:00pm 10.9 6.5 4.6 65 2.8 SSW 17 24 9 13 1024.0 1024.0 0.4
03/02:30pm 11.0 5.2 4.5 64 2.9 SSW 24 32 13 17 1023.8 1023.8 0.4
03/02:00pm 10.5 4.7 4.6 67 2.6 SSW 24 33 13 18 1023.6 1023.6 0.4
03/01:30pm 10.5 5.0 4.0 64 2.9 SSW 22 33 12 18 1023.6 1023.6 0.4
03/01:00pm 11.0 5.9 4.0 62 3.1 SW 20 33 11 18 1023.5 1023.5 0.4
03/12:30pm 9.7 3.0 5.5 75 1.9 SSW 30 44 16 24 1023.7 1023.7 0.2
03/12:00pm 11.3 5.3 3.3 58 3.5 SW 24 37 13 20 1023.7 1023.7 0.2
03/11:30am 10.4 3.4 6.0 74 2.0 S 32 48 17 26 1023.9 1023.9 0.2
03/11:20am 10.6 4.2 5.2 69 2.5 SSW 28 48 15 26 1023.7 1023.7 0.2
03/11:00am 11.4 5.2 4.2 61 3.2 SSW 26 37 14 20 1023.6 1023.6 0.2
03/10:30am 11.3 5.0 5.6 68 2.6 SSW 28 43 15 23 1023.5 1023.5 0.2
03/10:00am 9.9 4.1 6.3 78 1.7 SSW 26 39 14 21 1023.3 1023.3 0.2
03/09:32am 9.6 3.4 6.3 80 1.5 SW 28 48 15 26 1022.7 1022.7 0.0
03/09:30am 9.6 4.1 6.0 78 1.6 SW 24 43 13 23 1022.6 1022.6 0.0
03/09:00am 10.5 4.0 4.6 67 2.6 SW 28 43 15 23 1022.2 1022.2 5.0
03/08:30am 8.5 1.7 5.3 80 1.4 SW 30 50 16 27 1022.1 1022.1 5.0
03/08:09am 9.3 2.6 5.5 77 1.7 SSW 30 56 16 30 1021.6 1021.6 5.0
03/08:00am 9.2 4.4 5.4 77 1.7 SW 20 37 11 20 1021.3 1021.3 5.0
03/07:30am 8.5 2.7 6.3 86 1.0 SSW 26 41 14 22 1021.0 1021.0 4.8
03/07:00am 8.4 3.8 6.4 87 0.9 SSW 20 35 11 19 1020.5 1020.5 4.4
03/06:51am 8.7 2.5 6.3 85 1.1 SW 28 50 15 27 1020.5 1020.5 4.4
03/06:30am 8.8 3.1 6.8 87 0.9 SW 26 37 14 20 1020.3 1020.3 4.4
03/06:08am 10.2 3.8 5.2 71 2.3 SW 28 54 15 29 1019.6 1019.6 4.2
03/06:00am 10.2 4.3 4.1 66 2.7 SW 24 43 13 23 1019.4 1019.4 4.2
03/05:30am 9.7 3.2 4.9 72 2.1 SW 28 43 15 23 1019.1 1019.1 4.2
03/05:00am 10.4 3.9 6.4 76 1.9 SW 30 52 16 28 1018.8 1018.8 4.2
03/04:47am 10.4 3.2 5.0 69 2.4 SW 32 50 17 27 1018.5 1018.5 4.2
03/04:30am 10.0 4.1 5.6 74 2.0 SW 26 43 14 23 1018.3 1018.3 4.2
03/04:04am 9.8 3.6 6.2 78 1.7 SW 28 46 15 25 1018.2 1018.2 4.0
03/04:00am 10.2 4.0 6.2 76 1.9 SW 28 41 15 22 1018.0 1018.0 3.8
03/03:30am 10.2 4.8 6.5 78 1.7 SW 24 41 13 22 1017.7 1017.7 3.6
03/03:00am 11.0 4.9 6.7 75 2.0 SW 28 48 15 26 1017.5 1017.5 3.6
03/02:59am 11.0 4.8 6.2 72 2.2 WSW 28 48 15 26 1017.5 1017.5 3.6
03/02:30am 10.2 5.0 7.4 83 1.3 SW 24 41 13 22 1017.7 1017.7 3.6
03/02:00am 9.4 2.7 7.5 88 0.9 SW 32 50 17 27 1017.7 1017.7 3.6
03/01:30am 10.4 4.2 8.0 85 1.2 WSW 30 48 16 26 1017.7 1017.7 2.8
03/01:00am 10.6 4.5 6.7 77 1.8 WSW 28 52 15 28 1017.4 1017.4 2.8
03/12:38am 11.4 4.9 6.3 71 2.4 W 30 56 16 30 1017.1 1017.1 2.6
03/12:30am 11.4 5.4 6.9 74 2.1 W 28 44 15 24 1017.0 1017.0 2.6
03/12:00am 11.3 5.6 6.6 73 2.2 WSW 26 48 14 26 1017.0 1017.0 2.6
 
Date/Time
CST
Temp
°C
App
Temp
°C
Dew
Point
Rel
Hum
%
Delta-T
°C
Wind Press
QNH
hPa
Press
MSL
hPa
Rain
since 9 am
mm
Dir
 
Spd
km/h
Gust
km/h
Spd
kts
Gust
kts
02/11:30pm 10.6 4.6 7.1 79 1.7 WSW 28 52 15 28 1017.2 1017.2 2.6
02/11:28pm 10.9 4.9 7.0 77 1.9 WSW 28 52 15 28 1017.2 1017.2 2.6
02/11:00pm 10.9 5.3 7.0 77 1.9 WSW 26 43 14 23 1017.0 1017.0 2.6
02/10:45pm 11.9 5.7 6.2 68 2.7 WSW 28 50 15 27 1016.9 1016.9 2.6
02/10:30pm 11.7 5.8 6.0 68 2.7 WSW 26 54 14 29 1017.0 1017.0 2.6
02/10:13pm 11.1 5.1 7.0 76 2.0 WSW 28 48 15 26 1017.0 1017.0 2.4
02/10:00pm 10.8 6.3 6.9 77 1.8 WSW 20 37 11 20 1017.1 1017.1 2.4
02/09:48pm 10.0 4.0 6.9 81 1.5 WSW 28 48 15 26 1017.1 1017.1 2.4
02/09:30pm 10.2 4.8 8.0 86 1.1 WSW 26 43 14 23 1017.0 1017.0 2.4
02/09:00pm 11.8 4.7 6.5 70 2.5 W 33 56 18 30 1016.7 1016.7 2.4
02/08:36pm 11.8 5.4 5.2 64 3.0 W 28 48 15 26 1016.4 1016.4 2.4
02/08:30pm 11.4 6.2 5.7 68 2.6 W 22 43 12 23 1016.4 1016.4 2.4
02/08:00pm 10.6 4.9 6.9 78 1.7 W 26 44 14 24 1016.5 1016.5 2.4
02/07:40pm 11.1 5.0 6.5 73 2.2 W 28 48 15 26 1016.4 1016.4 2.4
02/07:30pm 11.3 5.2 6.6 73 2.2 W 28 43 15 23 1016.3 1016.3 2.4
02/07:00pm 11.2 5.5 6.5 73 2.2 W 26 46 14 25 1016.2 1016.2 2.4
02/06:30pm 11.0 4.9 6.6 74 2.1 W 28 48 15 26 1015.8 1015.8 2.4
02/06:05pm 10.7 4.7 7.0 78 1.8 WSW 28 50 15 27 1015.5 1015.5 2.4
02/06:00pm 10.4 5.2 7.3 81 1.5 W 24 50 13 27 1015.4 1015.4 2.4
02/05:30pm 10.6 6.5 8.0 84 1.3 WSW 19 32 10 17 1015.2 1015.2 2.2
02/05:17pm 11.7 5.7 7.2 74 2.2 WSW 28 48 15 26 1015.1 1015.1 2.0
02/05:00pm 12.0 6.2 6.3 68 2.7 W 26 39 14 21 1014.9 1014.9 2.0
02/04:30pm 11.9 6.8 5.8 66 2.8 WSW 22 43 12 23 1014.8 1014.8 2.0
02/04:18pm 11.9 5.6 5.8 66 2.8 WSW 28 50 15 27 1014.8 1014.8 2.0
02/04:00pm 11.3 5.6 6.6 73 2.2 WSW 26 44 14 24 1014.7 1014.7 2.0
02/03:33pm 12.4 6.3 6.7 68 2.7 WSW 28 50 15 27 1014.4 1014.4 2.0
02/03:30pm 12.2 6.5 6.5 68 2.7 WSW 26 50 14 27 1014.5 1014.5 2.0
02/03:05pm 11.5 5.7 8.0 79 1.7 WSW 28 50 15 27 1014.6 1014.6 2.0
02/03:00pm 12.2 7.1 7.7 74 2.2 WSW 24 50 13 27 1014.5 1014.5 2.0
02/02:37pm 12.6 6.7 7.3 70 2.6 WSW 28 50 15 27 1014.1 1014.1 2.0
02/02:30pm 12.9 7.8 7.8 71 2.5 W 24 43 13 23 1014.1 1014.1 2.0
02/02:02pm 11.9 6.2 8.2 78 1.8 W 28 54 15 29 1013.8 1013.8 2.0
02/02:00pm 12.0 6.8 8.8 81 1.6 W 26 46 14 25 1013.8 1013.8 2.0
02/01:44pm 11.6 6.4 10.2 91 0.7 W 28 56 15 30 1013.7 1013.7 2.0
02/01:30pm 11.9 8.4 10.8 93 0.6 W 20 39 11 21 1013.8 1013.8 1.8
02/01:00pm 13.1 6.0 8.0 71 2.5 WNW 35 57 19 31 1013.6 1013.6 0.4
02/12:30pm 14.3 8.2 8.3 67 3.0 WNW 30 50 16 27 1014.0 1014.0 0.4
02/12:00pm 14.5 8.6 9.1 70 2.8 WNW 30 48 16 26 1014.4 1014.4 0.4
02/11:30am 13.9 7.3 7.9 67 3.0 WNW 32 54 17 29 1014.5 1014.5 0.4
02/11:12am 13.9 8.2 8.3 69 2.8 W 28 46 15 25 1014.9 1014.9 0.4
02/11:00am 13.4 6.9 8.3 71 2.5 WNW 32 50 17 27 1014.9 1014.9 0.4
02/10:33am 12.8 6.3 8.3 74 2.2 W 32 52 17 28 1015.1 1015.1 0.4
02/10:30am 12.6 5.8 7.9 73 2.3 W 33 52 18 28 1015.0 1015.0 0.4
02/10:00am 12.8 6.1 8.1 73 2.3 W 33 61 18 33 1015.0 1015.0 0.2
02/09:45am 12.5 6.8 8.2 75 2.1 WNW 28 48 15 26 1014.8 1014.8 0.2
02/09:30am 10.9 5.9 8.1 83 1.4 W 24 43 13 23 1014.8 1014.8 0.2
02/09:00am 12.4 6.3 6.5 67 2.8 WNW 28 48 15 26 1014.9 1014.9 0.8
02/08:42am 11.5 5.3 6.2 70 2.5 W 28 46 15 25 1014.9 1014.9 0.8
02/08:30am 11.3 5.5 6.4 72 2.3 W 26 41 14 22 1014.9 1014.9 0.8
02/08:00am 11.2 5.7 6.1 71 2.4 W 24 41 13 22 1014.8 1014.8 0.8
02/07:30am 10.1 5.5 6.6 79 1.6 W 20 43 11 23 1014.9 1014.9 0.8
02/07:00am 9.8 4.9 6.7 81 1.4 WNW 22 32 12 17 1014.7 1014.7 0.8
02/06:30am 9.3 5.1 7.3 87 0.9 W 19 33 10 18 1014.5 1014.5 0.8
02/06:00am 9.0 3.7 6.8 86 1.0 W 24 39 13 21 1014.5 1014.5 0.8
02/05:30am 9.5 5.0 6.2 80 1.5 W 19 33 10 18 1014.4 1014.4 0.4
02/05:00am 9.9 5.5 4.7 70 2.3 W 17 28 9 15 1014.6 1014.6 0.4
02/04:30am 10.0 5.4 6.7 80 1.5 W 20 32 11 17 1014.8 1014.8 0.4
02/04:00am 9.7 5.3 4.5 70 2.3 WNW 17 28 9 15 1014.9 1014.9 0.4
02/03:30am 9.1 4.9 5.5 78 1.6 WNW 17 24 9 13 1015.1 1015.1 0.4
02/03:00am 9.6 6.6 6.1 79 1.6 WSW 11 20 6 11 1015.7 1015.7 0.0
02/02:30am 9.7 4.1 5.3 74 2.0 WNW 24 43 13 23 1015.8 1015.8 0.0
02/02:00am 9.6 6.3 4.8 72 2.1 W 11 19 6 10 1015.8 1015.8 0.0
02/01:30am 9.9 6.3 5.1 72 2.2 W 13 28 7 15 1016.2 1016.2 0.0
02/01:00am 10.7 6.3 5.0 68 2.6 W 17 28 9 15 1016.1 1016.1 0.0
02/12:30am 10.7 7.1 3.0 59 3.3 WSW 11 20 6 11 1016.2 1016.2 0.0
02/12:00am 10.9 6.4 2.2 55 3.7 W 15 24 8 13 1016.4 1016.4 0.0
 
Date/Time
CST
Temp
°C
App
Temp
°C
Dew
Point
Rel
Hum
%
Delta-T
°C
Wind Press
QNH
hPa
Press
MSL
hPa
Rain
since 9 am
mm
Dir
 
Spd
km/h
Gust
km/h
Spd
kts
Gust
kts
01/11:30pm 10.5 7.1 4.2 65 2.8 W 11 19 6 10 1016.7 1016.7 0.0

Other Formats:

Comma delimited format used in spreadsheet applications
http://www.bom.gov.au/fwo/IDS60801/IDS60801.95816.axf

JavaScript Object Notation format (JSON) in row-major order
http://www.bom.gov.au/fwo/IDS60801/IDS60801.95816.json